Time;durP1;ratioP1;P1;durP2;ratioP2;P2;SDS_P1;SDS_P2;PMS_P1;PMS_P2;Temp;Humidity;BMP_temperature;BMP_pressure;BME280_temperature;BME280_humidity;BME280_pressure;Samples;Min_cycle;Max_cycle;Signal;HPM_P1;HPM_P2
2020/12/06 00:00:40;;;;;;;24.20;13.90;;;;;;;;;;5006786;28;20229;-78
2020/12/06 00:03:07;;;;;;;28.03;15.07;;;;;;;;;;4987182;28;20229;-78
2020/12/06 00:05:36;;;;;;;25.57;13.60;;;;;;;;;;5017611;28;20229;-78
2020/12/06 00:08:03;;;;;;;24.63;14.13;;;;;;;;;;5028917;28;20229;-78
2020/12/06 00:10:31;;;;;;;26.27;14.90;;;;;;;;;;5006867;28;20232;-78
2020/12/06 00:12:59;;;;;;;26.37;13.87;;;;;;;;;;5013458;28;20220;-78
2020/12/06 00:15:26;;;;;;;23.77;13.70;;;;;;;;;;5034151;28;20229;-78
2020/12/06 00:17:54;;;;;;;25.13;13.47;;;;;;;;;;5013634;28;20240;-78
2020/12/06 00:20:24;;;;;;;25.80;13.70;;;;;;;;;;4992770;28;20235;-78
2020/12/06 00:22:53;;;;;;;25.83;13.47;;;;;;;;;;5040122;28;20605;-78
2020/12/06 00:25:20;;;;;;;28.20;15.07;;;;;;;;;;5001845;28;20225;-78
2020/12/06 00:27:48;;;;;;;25.40;12.93;;;;;;;;;;4987993;28;20225;-77
2020/12/06 00:30:16;;;;;;;26.50;13.33;;;;;;;;;;4990519;28;20686;-79
2020/12/06 00:32:43;;;;;;;28.50;13.93;;;;;;;;;;4993638;28;20587;-78
2020/12/06 00:35:11;;;;;;;25.00;13.30;;;;;;;;;;5018037;28;20228;-78
2020/12/06 00:37:40;;;;;;;28.53;14.23;;;;;;;;;;5045614;28;20299;-78
2020/12/06 00:40:09;;;;;;;27.30;14.47;;;;;;;;;;5030694;28;20244;-78
2020/12/06 00:42:37;;;;;;;27.27;13.70;;;;;;;;;;5010798;28;20228;-78
2020/12/06 00:45:05;;;;;;;28.47;14.43;;;;;;;;;;5011103;28;20224;-78
2020/12/06 00:47:36;;;;;;;27.83;14.33;;;;;;;;;;5008387;28;20243;-78
2020/12/06 00:50:05;;;;;;;26.37;13.90;;;;;;;;;;4987824;28;20619;-77
2020/12/06 00:52:33;;;;;;;24.33;12.57;;;;;;;;;;4977349;28;20233;-77
2020/12/06 00:55:01;;;;;;;24.63;13.63;;;;;;;;;;4989271;28;20365;-77
2020/12/06 00:57:31;;;;;;;28.77;14.03;;;;;;;;;;5001192;28;20744;-77
2020/12/06 00:59:58;;;;;;;23.67;13.30;;;;;;;;;;5022605;28;20236;-77
2020/12/06 01:02:26;;;;;;;24.27;13.80;;;;;;;;;;5019532;28;20239;-77
2020/12/06 01:04:53;;;;;;;27.03;14.23;;;;;;;;;;5014363;28;20220;-77
2020/12/06 01:07:21;;;;;;;25.80;13.00;;;;;;;;;;5010974;28;20235;-78
2020/12/06 01:09:48;;;;;;;27.30;13.70;;;;;;;;;;5032427;28;20223;-78
2020/12/06 01:12:16;;;;;;;23.80;12.50;;;;;;;;;;4995673;28;20229;-77
2020/12/06 01:14:44;;;;;;;26.03;14.17;;;;;;;;;;5017788;28;20228;-77
2020/12/06 01:17:12;;;;;;;23.87;12.83;;;;;;;;;;5020281;28;21455;-77
2020/12/06 01:19:39;;;;;;;23.13;11.97;;;;;;;;;;5016024;28;20231;-77
2020/12/06 01:22:07;;;;;;;24.43;13.50;;;;;;;;;;5021260;28;20917;-78
2020/12/06 01:24:34;;;;;;;23.67;12.93;;;;;;;;;;5015349;28;20232;-77
2020/12/06 01:27:02;;;;;;;27.80;14.57;;;;;;;;;;5016640;28;20236;-78
2020/12/06 01:29:29;;;;;;;22.60;12.53;;;;;;;;;;5019120;28;20368;-78
2020/12/06 01:31:58;;;;;;;23.80;12.63;;;;;;;;;;4997423;28;20228;-78
2020/12/06 01:34:27;;;;;;;26.10;13.80;;;;;;;;;;5033196;28;21166;-78
2020/12/06 01:36:54;;;;;;;24.10;12.73;;;;;;;;;;4995565;28;20243;-77
2020/12/06 01:39:22;;;;;;;26.50;13.03;;;;;;;;;;5031319;28;20851;-78
2020/12/06 01:41:53;;;;;;;23.50;12.37;;;;;;;;;;5019477;28;20243;-78
2020/12/06 01:44:21;;;;;;;27.87;14.17;;;;;;;;;;5016661;28;20235;-80
2020/12/06 01:46:49;;;;;;;22.53;12.37;;;;;;;;;;5016332;28;20239;-78
2020/12/06 01:49:20;;;;;;;25.67;13.70;;;;;;;;;;4997560;28;20232;-79
2020/12/06 01:51:51;;;;;;;24.80;12.13;;;;;;;;;;5025974;28;20220;-79
2020/12/06 01:54:19;;;;;;;25.27;13.73;;;;;;;;;;5017107;28;20227;-78
2020/12/06 01:56:46;;;;;;;23.50;12.63;;;;;;;;;;5020815;28;20217;-78
2020/12/06 01:59:14;;;;;;;25.40;13.30;;;;;;;;;;5021443;28;20232;-78
2020/12/06 02:01:42;;;;;;;27.73;13.17;;;;;;;;;;4999537;28;20240;-78
2020/12/06 02:04:12;;;;;;;28.73;13.50;;;;;;;;;;5020149;28;20728;-79
2020/12/06 02:06:40;;;;;;;25.70;12.60;;;;;;;;;;5036782;28;20218;-80
2020/12/06 02:09:08;;;;;;;26.53;13.40;;;;;;;;;;5038985;28;20235;-79
2020/12/06 02:11:36;;;;;;;24.53;12.97;;;;;;;;;;5018770;28;20243;-78
2020/12/06 02:14:04;;;;;;;21.43;12.00;;;;;;;;;;5013943;28;20235;-77
2020/12/06 02:16:31;;;;;;;22.90;12.50;;;;;;;;;;5019882;28;20228;-78
2020/12/06 02:19:00;;;;;;;20.93;12.00;;;;;;;;;;4994257;28;20228;-78
2020/12/06 02:21:28;;;;;;;23.33;12.20;;;;;;;;;;5014245;28;20302;-78
2020/12/06 02:23:56;;;;;;;22.60;12.57;;;;;;;;;;4996745;28;20225;-79
2020/12/06 02:26:24;;;;;;;22.93;12.80;;;;;;;;;;5021277;28;20239;-78
2020/12/06 02:28:51;;;;;;;21.90;11.63;;;;;;;;;;5029258;28;20609;-77
2020/12/06 02:31:19;;;;;;;20.97;12.07;;;;;;;;;;5021833;28;22855;-78
2020/12/06 02:33:47;;;;;;;24.57;12.57;;;;;;;;;;5013007;28;20227;-78
2020/12/06 02:36:15;;;;;;;20.93;11.07;;;;;;;;;;5013248;28;20228;-77
2020/12/06 02:38:49;;;;;;;21.73;11.90;;;;;;;;;;5015294;28;20231;-77
2020/12/06 02:41:17;;;;;;;23.03;11.33;;;;;;;;;;5008040;28;20283;-77
2020/12/06 02:43:45;;;;;;;24.47;12.27;;;;;;;;;;5010802;28;20243;-79
2020/12/06 02:46:12;;;;;;;22.33;11.60;;;;;;;;;;5020664;28;20228;-78
2020/12/06 02:48:40;;;;;;;25.03;11.90;;;;;;;;;;5019876;28;20585;-78
2020/12/06 02:51:07;;;;;;;23.07;12.50;;;;;;;;;;5016332;28;20235;-78
2020/12/06 02:53:35;;;;;;;23.57;12.47;;;;;;;;;;5019498;28;20721;-77
2020/12/06 02:56:03;;;;;;;22.20;11.77;;;;;;;;;;5018761;28;20232;-78
2020/12/06 02:58:31;;;;;;;22.77;11.87;;;;;;;;;;5021451;28;20224;-77
2020/12/06 03:00:58;;;;;;;19.27;11.03;;;;;;;;;;5014807;28;20860;-78
2020/12/06 03:03:26;;;;;;;21.60;11.33;;;;;;;;;;5009631;28;20220;-77
2020/12/06 03:05:54;;;;;;;20.23;10.70;;;;;;;;;;4999454;28;20227;-78
2020/12/06 03:08:21;;;;;;;22.03;11.73;;;;;;;;;;5014459;28;20243;-77
2020/12/06 03:10:49;;;;;;;21.63;11.47;;;;;;;;;;5010711;28;20236;-78
2020/12/06 03:13:17;;;;;;;18.00;10.27;;;;;;;;;;4996536;28;20702;-78
2020/12/06 03:15:45;;;;;;;18.33;10.17;;;;;;;;;;5007462;28;20239;-77
2020/12/06 03:18:12;;;;;;;19.03;10.67;;;;;;;;;;5022742;28;20231;-77
2020/12/06 03:20:40;;;;;;;18.37;9.97;;;;;;;;;;5018061;28;20220;-78
2020/12/06 03:23:07;;;;;;;18.67;9.77;;;;;;;;;;5019336;28;20254;-77
2020/12/06 03:25:35;;;;;;;19.10;9.27;;;;;;;;;;5017778;28;20220;-78
2020/12/06 03:28:02;;;;;;;17.43;9.47;;;;;;;;;;5026174;28;20722;-78
2020/12/06 03:30:31;;;;;;;15.77;9.53;;;;;;;;;;5022614;28;20231;-78
2020/12/06 03:32:58;;;;;;;17.53;8.73;;;;;;;;;;4998241;28;20236;-78
2020/12/06 03:35:27;;;;;;;17.03;9.17;;;;;;;;;;5015778;28;20213;-78
2020/12/06 03:37:54;;;;;;;18.27;9.03;;;;;;;;;;5024850;28;20224;-78
2020/12/06 03:40:22;;;;;;;17.87;9.20;;;;;;;;;;5009742;28;20236;-79
2020/12/06 03:42:50;;;;;;;15.30;9.00;;;;;;;;;;4992336;28;20619;-77
2020/12/06 03:45:18;;;;;;;19.77;9.53;;;;;;;;;;5005394;28;20237;-77
2020/12/06 03:47:47;;;;;;;15.30;8.53;;;;;;;;;;5005246;28;20237;-78
2020/12/06 03:50:14;;;;;;;14.60;8.17;;;;;;;;;;4990039;28;20225;-78
2020/12/06 03:52:42;;;;;;;15.20;9.13;;;;;;;;;;4986340;28;20226;-78
2020/12/06 03:55:09;;;;;;;15.03;8.43;;;;;;;;;;5001865;28;20253;-79
2020/12/06 03:57:37;;;;;;;18.30;10.20;;;;;;;;;;5005943;28;20229;-79
2020/12/06 04:00:05;;;;;;;18.27;10.13;;;;;;;;;;5033828;28;20938;-78
2020/12/06 04:02:33;;;;;;;18.90;9.80;;;;;;;;;;5026320;28;20769;-78
2020/12/06 04:05:03;;;;;;;18.33;9.77;;;;;;;;;;5023460;28;20610;-77
2020/12/06 04:07:30;;;;;;;19.43;10.63;;;;;;;;;;5033305;28;20227;-78
2020/12/06 04:09:58;;;;;;;16.97;9.53;;;;;;;;;;5017531;28;20235;-77
2020/12/06 04:12:25;;;;;;;19.13;10.57;;;;;;;;;;5018811;28;20245;-78
2020/12/06 04:14:53;;;;;;;19.20;9.93;;;;;;;;;;5009028;28;20224;-77
2020/12/06 04:17:20;;;;;;;17.77;9.13;;;;;;;;;;5004749;28;20607;-78
2020/12/06 04:19:49;;;;;;;16.63;9.23;;;;;;;;;;4991609;28;20234;-80
2020/12/06 04:22:17;;;;;;;14.63;8.47;;;;;;;;;;4985455;28;20235;-77
2020/12/06 04:24:45;;;;;;;17.60;8.77;;;;;;;;;;5020879;28;20469;-78
2020/12/06 04:27:12;;;;;;;16.07;8.80;;;;;;;;;;5008854;28;20229;-77
2020/12/06 04:29:40;;;;;;;17.70;9.67;;;;;;;;;;5016206;28;20229;-78
2020/12/06 04:32:08;;;;;;;15.97;8.60;;;;;;;;;;5034323;28;20237;-77
2020/12/06 04:34:36;;;;;;;14.70;8.30;;;;;;;;;;5022852;28;20269;-78
2020/12/06 04:37:04;;;;;;;15.33;9.33;;;;;;;;;;5026576;28;20721;-78
2020/12/06 04:39:32;;;;;;;16.47;8.77;;;;;;;;;;5032101;28;20235;-80
2020/12/06 04:42:01;;;;;;;20.73;9.37;;;;;;;;;;5029511;28;20518;-78
2020/12/06 04:44:29;;;;;;;17.40;9.53;;;;;;;;;;5005234;28;20225;-78
2020/12/06 04:47:00;;;;;;;17.30;9.37;;;;;;;;;;5026911;28;20224;-77
2020/12/06 04:49:43;;;;;;;16.37;9.87;;;;;;;;;;5029323;28;20243;-77
2020/12/06 04:52:16;;;;;;;16.40;9.37;;;;;;;;;;5049925;28;20235;-79
2020/12/06 04:54:49;;;;;;;15.00;9.27;;;;;;;;;;5046180;28;20236;-77
2020/12/06 04:57:19;;;;;;;16.90;9.40;;;;;;;;;;5022363;28;20223;-77
2020/12/06 04:59:47;;;;;;;18.27;10.07;;;;;;;;;;5025699;28;20628;-77
2020/12/06 05:02:19;;;;;;;15.37;9.67;;;;;;;;;;5024241;28;20232;-76
2020/12/06 05:04:48;;;;;;;15.97;9.67;;;;;;;;;;5016182;28;20228;-77
2020/12/06 05:07:17;;;;;;;17.30;10.60;;;;;;;;;;5026354;28;20432;-77
2020/12/06 05:09:47;;;;;;;14.07;8.43;;;;;;;;;;5022417;28;20599;-78
2020/12/06 05:12:16;;;;;;;16.53;9.03;;;;;;;;;;5016836;28;20236;-78
2020/12/06 05:14:43;;;;;;;15.67;9.40;;;;;;;;;;4997556;28;20228;-78
2020/12/06 05:17:11;;;;;;;14.33;9.47;;;;;;;;;;5024277;28;20228;-78
2020/12/06 05:19:38;;;;;;;15.10;9.57;;;;;;;;;;5020611;28;20221;-79
2020/12/06 05:22:07;;;;;;;14.73;9.10;;;;;;;;;;5019527;28;20228;-77
2020/12/06 05:24:35;;;;;;;14.87;9.47;;;;;;;;;;5024411;28;20224;-77
2020/12/06 05:27:04;;;;;;;15.97;9.50;;;;;;;;;;5016674;28;20255;-78
2020/12/06 05:29:31;;;;;;;14.23;8.60;;;;;;;;;;5011201;28;20228;-78
2020/12/06 05:32:01;;;;;;;13.17;8.50;;;;;;;;;;5027482;28;20223;-78
2020/12/06 05:34:30;;;;;;;15.13;8.93;;;;;;;;;;5018663;28;20230;-78
2020/12/06 05:37:04;;;;;;;15.90;10.03;;;;;;;;;;5015292;28;20225;-78
2020/12/06 05:39:32;;;;;;;12.63;8.43;;;;;;;;;;5005278;28;20634;-77
2020/12/06 05:42:00;;;;;;;17.10;10.03;;;;;;;;;;5015173;28;21571;-77
2020/12/06 05:44:29;;;;;;;13.20;8.77;;;;;;;;;;4985333;28;20231;-77
2020/12/06 05:46:59;;;;;;;14.80;9.47;;;;;;;;;;5004179;28;20220;-80
2020/12/06 05:49:28;;;;;;;13.50;8.17;;;;;;;;;;5018879;28;20351;-78
2020/12/06 05:51:56;;;;;;;14.87;9.40;;;;;;;;;;5041638;28;20224;-77
2020/12/06 05:54:24;;;;;;;16.17;9.60;;;;;;;;;;5023578;28;20848;-77
2020/12/06 05:56:53;;;;;;;14.07;8.93;;;;;;;;;;5035106;28;20220;-78
2020/12/06 05:59:22;;;;;;;17.27;8.97;;;;;;;;;;5038883;28;20233;-77
2020/12/06 06:01:53;;;;;;;12.27;7.10;;;;;;;;;;5019104;28;20228;-80
2020/12/06 06:04:22;;;;;;;12.93;8.07;;;;;;;;;;5020750;28;20231;-78
2020/12/06 06:06:51;;;;;;;15.50;8.93;;;;;;;;;;5000506;28;20225;-80
2020/12/06 06:09:19;;;;;;;12.80;8.70;;;;;;;;;;5019613;28;20233;-76
2020/12/06 06:11:56;;;;;;;14.07;8.00;;;;;;;;;;5003494;28;20243;-76
2020/12/06 06:14:24;;;;;;;12.43;7.90;;;;;;;;;;4998844;28;20228;-80
2020/12/06 06:16:52;;;;;;;12.37;7.53;;;;;;;;;;4988157;28;20514;-77
2020/12/06 06:19:22;;;;;;;11.13;7.07;;;;;;;;;;5016359;28;20700;-77
2020/12/06 06:21:51;;;;;;;12.10;6.50;;;;;;;;;;5011940;28;20220;-77
2020/12/06 06:24:23;;;;;;;11.17;6.80;;;;;;;;;;5006102;28;20236;-77
2020/12/06 06:26:52;;;;;;;13.27;7.90;;;;;;;;;;5006830;28;20573;-77
2020/12/06 06:29:21;;;;;;;17.57;7.70;;;;;;;;;;5009688;28;20231;-77
2020/12/06 06:31:49;;;;;;;12.03;6.97;;;;;;;;;;5022196;28;20230;-77
2020/12/06 06:34:20;;;;;;;13.17;7.63;;;;;;;;;;5017190;28;20224;-77
2020/12/06 06:36:48;;;;;;;15.90;8.17;;;;;;;;;;5029079;28;20244;-77
2020/12/06 06:39:18;;;;;;;14.20;7.73;;;;;;;;;;5006059;28;20752;-77
2020/12/06 06:41:58;;;;;;;12.93;8.17;;;;;;;;;;5038431;28;20247;-77
2020/12/06 06:44:27;;;;;;;14.63;7.77;;;;;;;;;;5017042;28;20221;-77
2020/12/06 06:47:00;;;;;;;11.07;6.57;;;;;;;;;;5019434;28;20231;-77
2020/12/06 06:49:29;;;;;;;10.00;6.83;;;;;;;;;;5024315;28;20235;-77
2020/12/06 06:51:58;;;;;;;11.40;7.10;;;;;;;;;;5042918;28;20228;-77
2020/12/06 06:54:27;;;;;;;10.37;6.90;;;;;;;;;;5020462;28;20240;-77
2020/12/06 06:56:56;;;;;;;8.47;5.93;;;;;;;;;;5020964;28;20234;-77
2020/12/06 06:59:38;;;;;;;8.83;5.90;;;;;;;;;;5026428;28;20224;-78
2020/12/06 07:02:19;;;;;;;8.63;5.57;;;;;;;;;;5021924;28;20242;-77
2020/12/06 07:04:48;;;;;;;10.33;7.03;;;;;;;;;;5039637;28;20864;-77
2020/12/06 07:07:16;;;;;;;10.20;6.40;;;;;;;;;;5005937;28;20573;-77
2020/12/06 07:09:44;;;;;;;10.13;6.50;;;;;;;;;;5018255;28;20228;-77
2020/12/06 07:12:12;;;;;;;10.67;6.60;;;;;;;;;;5020020;28;20247;-78
2020/12/06 07:14:40;;;;;;;10.77;6.83;;;;;;;;;;5031929;28;20236;-79
2020/12/06 07:17:08;;;;;;;10.57;7.00;;;;;;;;;;5047284;28;20235;-79
2020/12/06 07:19:35;;;;;;;12.00;7.47;;;;;;;;;;5049726;28;20521;-79
2020/12/06 07:22:05;;;;;;;8.73;6.03;;;;;;;;;;5042109;28;20232;-77
2020/12/06 07:24:33;;;;;;;9.87;6.37;;;;;;;;;;5050361;28;20238;-79
2020/12/06 07:27:04;;;;;;;13.03;6.63;;;;;;;;;;5021497;28;20596;-77
2020/12/06 07:29:31;;;;;;;10.50;6.40;;;;;;;;;;5022666;28;20239;-78
2020/12/06 07:32:00;;;;;;;8.77;6.03;;;;;;;;;;5005516;28;20608;-77
2020/12/06 07:34:27;;;;;;;14.03;7.20;;;;;;;;;;5021964;28;20236;-78
2020/12/06 07:36:55;;;;;;;9.00;5.43;;;;;;;;;;5052752;28;20232;-77
2020/12/06 07:39:24;;;;;;;9.83;6.47;;;;;;;;;;5021882;28;20236;-77
2020/12/06 07:41:51;;;;;;;10.10;7.27;;;;;;;;;;5011203;28;20228;-80
2020/12/06 07:44:19;;;;;;;13.40;6.87;;;;;;;;;;5025189;28;20239;-77
2020/12/06 07:46:59;;;;;;;12.37;6.33;;;;;;;;;;5017424;28;20576;-77
2020/12/06 07:49:27;;;;;;;12.40;7.50;;;;;;;;;;5050129;28;20247;-77
2020/12/06 07:51:54;;;;;;;12.33;7.77;;;;;;;;;;5042128;28;20227;-77
2020/12/06 07:54:23;;;;;;;10.90;7.27;;;;;;;;;;5024962;28;20560;-77
2020/12/06 07:56:57;;;;;;;12.30;7.70;;;;;;;;;;5038959;28;20224;-79
2020/12/06 07:59:25;;;;;;;12.13;6.73;;;;;;;;;;5050583;28;20217;-79
2020/12/06 08:01:55;;;;;;;10.53;6.63;;;;;;;;;;5026451;28;20227;-80
2020/12/06 08:04:27;;;;;;;13.20;7.00;;;;;;;;;;5078329;28;20228;-80
2020/12/06 08:07:01;;;;;;;16.90;8.67;;;;;;;;;;5031432;28;20208;-79
2020/12/06 08:09:30;;;;;;;12.77;7.73;;;;;;;;;;5039796;28;20242;-80
2020/12/06 08:12:01;;;;;;;10.83;7.37;;;;;;;;;;5024782;28;20215;-80
2020/12/06 08:14:29;;;;;;;12.10;7.43;;;;;;;;;;5017722;28;20217;-77
2020/12/06 08:16:58;;;;;;;11.00;7.30;;;;;;;;;;5001833;28;20715;-77
2020/12/06 08:19:27;;;;;;;10.97;7.03;;;;;;;;;;4981688;28;20220;-77
2020/12/06 08:21:59;;;;;;;13.60;8.10;;;;;;;;;;5007819;28;20243;-77
2020/12/06 08:24:29;;;;;;;12.37;7.63;;;;;;;;;;5022679;28;20239;-79
2020/12/06 08:26:58;;;;;;;11.50;8.03;;;;;;;;;;4983781;28;20694;-78
2020/12/06 08:29:40;;;;;;;13.40;8.23;;;;;;;;;;5034787;28;20719;-77
2020/12/06 08:32:08;;;;;;;13.13;8.47;;;;;;;;;;5010474;28;20224;-78
2020/12/06 08:34:36;;;;;;;13.00;8.23;;;;;;;;;;4996663;28;20216;-77
2020/12/06 08:37:17;;;;;;;12.77;8.27;;;;;;;;;;4977375;28;20217;-78
2020/12/06 08:39:46;;;;;;;13.73;9.20;;;;;;;;;;4997918;28;20237;-78
2020/12/06 08:42:18;;;;;;;14.43;9.30;;;;;;;;;;4990058;28;20244;-78
2020/12/06 08:44:53;;;;;;;13.70;8.70;;;;;;;;;;4994484;28;20220;-79
2020/12/06 08:47:21;;;;;;;11.50;8.07;;;;;;;;;;5023260;28;20227;-79
2020/12/06 08:50:05;;;;;;;11.70;7.90;;;;;;;;;;5007607;28;20237;-78
2020/12/06 08:52:33;;;;;;;12.30;7.97;;;;;;;;;;5000666;28;20235;-77
2020/12/06 08:55:02;;;;;;;13.17;8.57;;;;;;;;;;5006820;28;20228;-79
2020/12/06 08:57:29;;;;;;;12.43;8.10;;;;;;;;;;4990891;28;20228;-79
2020/12/06 08:59:57;;;;;;;13.47;8.83;;;;;;;;;;5013838;28;20221;-78
2020/12/06 09:02:25;;;;;;;12.87;9.13;;;;;;;;;;5017570;28;20235;-78
2020/12/06 09:04:52;;;;;;;14.90;9.73;;;;;;;;;;4997968;28;20224;-78
2020/12/06 09:07:20;;;;;;;11.93;8.37;;;;;;;;;;5010786;28;20237;-78
2020/12/06 09:09:48;;;;;;;13.00;8.73;;;;;;;;;;5031379;28;20702;-78
2020/12/06 09:12:16;;;;;;;12.17;8.00;;;;;;;;;;5013966;28;20243;-77
2020/12/06 09:14:44;;;;;;;12.53;8.50;;;;;;;;;;5009534;28;20809;-78
2020/12/06 09:17:11;;;;;;;14.20;8.63;;;;;;;;;;5043132;28;20228;-78
2020/12/06 09:19:38;;;;;;;12.73;8.77;;;;;;;;;;5016729;28;20248;-78
2020/12/06 09:22:06;;;;;;;11.67;7.67;;;;;;;;;;5006960;28;20290;-78
2020/12/06 09:24:33;;;;;;;14.10;8.90;;;;;;;;;;5006679;28;20224;-78
2020/12/06 09:27:02;;;;;;;12.63;8.10;;;;;;;;;;5021204;28;20752;-79
2020/12/06 09:29:30;;;;;;;12.97;7.90;;;;;;;;;;5027092;28;20223;-78
2020/12/06 09:31:58;;;;;;;12.00;8.33;;;;;;;;;;5034939;28;20232;-79
2020/12/06 09:34:26;;;;;;;11.63;7.93;;;;;;;;;;5054885;28;20724;-79
2020/12/06 09:36:53;;;;;;;11.03;7.90;;;;;;;;;;4997313;28;20218;-79
2020/12/06 09:39:21;;;;;;;12.30;8.23;;;;;;;;;;5001591;28;20232;-78
2020/12/06 09:41:49;;;;;;;12.20;7.87;;;;;;;;;;4994903;28;20224;-79
2020/12/06 09:44:17;;;;;;;12.43;9.00;;;;;;;;;;4989923;28;20229;-79
2020/12/06 09:46:46;;;;;;;11.67;7.97;;;;;;;;;;4997989;28;20737;-78
2020/12/06 09:49:13;;;;;;;12.50;8.27;;;;;;;;;;4995372;28;20229;-79
2020/12/06 09:51:42;;;;;;;12.77;8.30;;;;;;;;;;4993215;28;20220;-76
2020/12/06 09:54:09;;;;;;;12.00;8.30;;;;;;;;;;4989831;28;20228;-77
2020/12/06 09:56:38;;;;;;;13.57;9.10;;;;;;;;;;4998522;28;20228;-77
2020/12/06 09:59:05;;;;;;;14.37;9.47;;;;;;;;;;5001431;28;20252;-77
2020/12/06 10:01:33;;;;;;;13.60;9.07;;;;;;;;;;5019196;28;20221;-77
2020/12/06 10:04:01;;;;;;;12.20;7.43;;;;;;;;;;4999924;28;20225;-77
2020/12/06 10:06:29;;;;;;;14.90;8.70;;;;;;;;;;5020930;28;20228;-77
2020/12/06 10:08:57;;;;;;;14.47;9.20;;;;;;;;;;4996806;28;20232;-78
2020/12/06 10:11:25;;;;;;;13.77;8.37;;;;;;;;;;5001616;28;20717;-76
2020/12/06 10:13:52;;;;;;;12.17;7.20;;;;;;;;;;4998427;28;20221;-77
2020/12/06 10:16:20;;;;;;;10.40;7.07;;;;;;;;;;5025605;28;20235;-78
2020/12/06 10:18:47;;;;;;;10.73;7.20;;;;;;;;;;5007152;28;20259;-79
2020/12/06 10:21:16;;;;;;;9.70;6.57;;;;;;;;;;5002646;28;20232;-78
2020/12/06 10:23:44;;;;;;;10.63;6.70;;;;;;;;;;5017449;28;20229;-79
2020/12/06 10:26:12;;;;;;;9.37;5.37;;;;;;;;;;5026154;28;20224;-79
2020/12/06 10:28:39;;;;;;;7.40;4.23;;;;;;;;;;5020958;28;20231;-79
2020/12/06 10:31:07;;;;;;;7.23;4.00;;;;;;;;;;5026110;28;20247;-79
2020/12/06 10:33:34;;;;;;;5.93;4.13;;;;;;;;;;5018123;28;20224;-80
2020/12/06 10:36:02;;;;;;;4.83;3.60;;;;;;;;;;5024311;28;20216;-78
2020/12/06 10:38:30;;;;;;;5.00;3.23;;;;;;;;;;5021621;28;20400;-79
2020/12/06 10:40:58;;;;;;;3.63;2.87;;;;;;;;;;5020983;28;20224;-79
2020/12/06 10:43:26;;;;;;;3.50;2.80;;;;;;;;;;5023667;28;20239;-78
2020/12/06 10:45:53;;;;;;;6.37;3.13;;;;;;;;;;5019828;28;20220;-77
2020/12/06 10:48:21;;;;;;;3.50;2.50;;;;;;;;;;5024610;28;20234;-77
2020/12/06 10:50:51;;;;;;;2.93;2.53;;;;;;;;;;5023274;28;20220;-77
2020/12/06 10:53:18;;;;;;;3.60;2.97;;;;;;;;;;5014582;28;20225;-77
2020/12/06 10:55:46;;;;;;;3.67;2.87;;;;;;;;;;5028211;28;20590;-77
2020/12/06 10:58:14;;;;;;;4.80;3.57;;;;;;;;;;5031321;28;20341;-77
2020/12/06 11:00:41;;;;;;;3.80;3.20;;;;;;;;;;5025915;28;20235;-77
2020/12/06 11:03:09;;;;;;;3.50;2.90;;;;;;;;;;5025906;28;20216;-79
2020/12/06 11:05:36;;;;;;;3.97;2.90;;;;;;;;;;5024597;28;20232;-77
2020/12/06 11:08:04;;;;;;;2.90;2.50;;;;;;;;;;5019526;28;23225;-77
2020/12/06 11:10:31;;;;;;;4.83;3.03;;;;;;;;;;5022069;28;20232;-77
2020/12/06 11:13:00;;;;;;;4.30;3.23;;;;;;;;;;5025520;28;20592;-77
2020/12/06 11:15:27;;;;;;;4.00;3.00;;;;;;;;;;5035566;28;20231;-77
2020/12/06 11:18:08;;;;;;;4.50;3.07;;;;;;;;;;5028228;28;20600;-77
2020/12/06 11:20:35;;;;;;;3.30;2.57;;;;;;;;;;5023599;28;20232;-77
2020/12/06 11:23:03;;;;;;;4.17;3.10;;;;;;;;;;5021985;28;20235;-78
2020/12/06 11:25:31;;;;;;;3.70;2.90;;;;;;;;;;5028211;28;20227;-78
2020/12/06 11:28:00;;;;;;;4.00;2.90;;;;;;;;;;5025297;28;20424;-78
2020/12/06 11:30:27;;;;;;;5.63;3.37;;;;;;;;;;4998615;28;20244;-77
2020/12/06 11:32:55;;;;;;;4.90;3.53;;;;;;;;;;5004081;28;20233;-77
2020/12/06 11:35:22;;;;;;;4.83;3.57;;;;;;;;;;5004457;28;20221;-78
2020/12/06 11:37:50;;;;;;;4.20;3.27;;;;;;;;;;4997334;28;20232;-77
2020/12/06 11:40:18;;;;;;;4.07;3.10;;;;;;;;;;5023812;28;20228;-77
2020/12/06 11:42:45;;;;;;;4.60;3.60;;;;;;;;;;5037426;28;20228;-78
2020/12/06 11:45:14;;;;;;;4.53;3.07;;;;;;;;;;5020341;28;20240;-79
2020/12/06 11:47:41;;;;;;;4.50;3.30;;;;;;;;;;5024123;28;20227;-78
2020/12/06 11:50:09;;;;;;;3.63;3.10;;;;;;;;;;5020571;28;20221;-76
2020/12/06 11:52:36;;;;;;;4.30;3.10;;;;;;;;;;5029246;28;20228;-76
2020/12/06 11:55:04;;;;;;;4.00;2.93;;;;;;;;;;5026140;28;20233;-77
2020/12/06 11:57:32;;;;;;;4.20;3.23;;;;;;;;;;5044090;28;20224;-76
2020/12/06 11:59:59;;;;;;;5.17;3.70;;;;;;;;;;5032609;28;20229;-77
2020/12/06 12:02:27;;;;;;;4.50;3.27;;;;;;;;;;5024271;28;20208;-77
2020/12/06 12:04:55;;;;;;;4.80;3.77;;;;;;;;;;5023436;28;20236;-79
2020/12/06 12:07:22;;;;;;;5.30;3.70;;;;;;;;;;5042499;28;20224;-78
2020/12/06 12:09:50;;;;;;;5.07;3.30;;;;;;;;;;5023162;28;20709;-79
2020/12/06 12:12:18;;;;;;;4.43;3.43;;;;;;;;;;5034724;28;20235;-78
2020/12/06 12:14:45;;;;;;;5.13;3.90;;;;;;;;;;5024780;28;20224;-78
2020/12/06 12:17:12;;;;;;;5.90;3.63;;;;;;;;;;5028529;28;20251;-78
2020/12/06 12:19:41;;;;;;;5.87;3.90;;;;;;;;;;5017117;28;20237;-76
2020/12/06 12:22:08;;;;;;;5.27;3.70;;;;;;;;;;5028233;28;20223;-77
2020/12/06 12:24:36;;;;;;;4.77;3.80;;;;;;;;;;5028651;28;20255;-78
2020/12/06 12:27:03;;;;;;;5.27;3.77;;;;;;;;;;5030893;28;20216;-77
2020/12/06 12:29:31;;;;;;;6.17;3.77;;;;;;;;;;5027915;28;20240;-78
2020/12/06 12:31:59;;;;;;;5.27;4.00;;;;;;;;;;5026176;28;20228;-78
2020/12/06 12:34:27;;;;;;;6.30;3.80;;;;;;;;;;5016543;28;20262;-77
2020/12/06 12:36:55;;;;;;;4.90;3.50;;;;;;;;;;5029725;28;20228;-78
2020/12/06 12:39:22;;;;;;;5.93;3.63;;;;;;;;;;5018038;28;20477;-78
2020/12/06 12:41:50;;;;;;;4.73;3.67;;;;;;;;;;5028065;28;20740;-77
2020/12/06 12:44:17;;;;;;;5.40;3.50;;;;;;;;;;5026987;28;20232;-78
2020/12/06 12:46:45;;;;;;;5.27;3.47;;;;;;;;;;5038410;28;20228;-78
2020/12/06 12:49:12;;;;;;;5.27;3.60;;;;;;;;;;5041099;28;20232;-77
2020/12/06 12:51:40;;;;;;;4.57;3.50;;;;;;;;;;5045986;28;20240;-77
2020/12/06 12:54:08;;;;;;;4.27;3.43;;;;;;;;;;5015173;28;20239;-78
2020/12/06 12:56:35;;;;;;;5.33;4.10;;;;;;;;;;5003888;28;20243;-78
2020/12/06 12:59:03;;;;;;;5.87;4.10;;;;;;;;;;5002036;28;20221;-78
2020/12/06 13:01:30;;;;;;;6.20;4.40;;;;;;;;;;5023249;28;20236;-78
2020/12/06 13:03:58;;;;;;;5.33;3.93;;;;;;;;;;5003475;28;20229;-78
2020/12/06 13:06:25;;;;;;;6.57;4.40;;;;;;;;;;5004344;28;20235;-78
2020/12/06 13:08:53;;;;;;;8.40;4.50;;;;;;;;;;4999606;28;20228;-78
2020/12/06 13:11:25;;;;;;;5.90;4.03;;;;;;;;;;5011117;28;20237;-78
2020/12/06 13:13:58;;;;;;;6.93;4.83;;;;;;;;;;5013236;28;20236;-78
2020/12/06 13:16:26;;;;;;;6.93;4.63;;;;;;;;;;5026012;28;20237;-78
2020/12/06 13:18:55;;;;;;;7.47;4.47;;;;;;;;;;5007939;28;20222;-78
2020/12/06 13:21:23;;;;;;;6.43;4.40;;;;;;;;;;5025821;28;20237;-78
2020/12/06 13:23:50;;;;;;;5.53;3.90;;;;;;;;;;4998824;28;20242;-79
2020/12/06 13:26:19;;;;;;;5.00;3.53;;;;;;;;;;5004799;28;20227;-78
2020/12/06 13:28:48;;;;;;;5.37;4.00;;;;;;;;;;4997896;28;20236;-78
2020/12/06 13:31:19;;;;;;;4.40;3.30;;;;;;;;;;5004772;28;20606;-78
2020/12/06 13:33:47;;;;;;;4.23;3.50;;;;;;;;;;5018369;28;20606;-78
2020/12/06 13:36:19;;;;;;;5.70;3.87;;;;;;;;;;4999840;28;20228;-77
2020/12/06 13:38:47;;;;;;;5.23;3.53;;;;;;;;;;5033860;28;20223;-78
2020/12/06 13:41:15;;;;;;;4.67;3.47;;;;;;;;;;5047209;28;20239;-78
2020/12/06 13:43:48;;;;;;;4.57;3.03;;;;;;;;;;4997828;28;20228;-79
2020/12/06 13:46:21;;;;;;;4.47;3.30;;;;;;;;;;5024081;28;20232;-78
2020/12/06 13:48:49;;;;;;;4.97;3.33;;;;;;;;;;5017324;28;20219;-78
2020/12/06 13:51:16;;;;;;;3.67;2.70;;;;;;;;;;5025350;28;20243;-78
2020/12/06 13:53:44;;;;;;;4.73;3.13;;;;;;;;;;5018523;28;21150;-77
2020/12/06 13:56:11;;;;;;;3.37;2.90;;;;;;;;;;5049397;28;20235;-78
2020/12/06 13:58:39;;;;;;;4.57;3.13;;;;;;;;;;5018780;28;20227;-78
2020/12/06 14:01:08;;;;;;;4.00;3.37;;;;;;;;;;5007903;28;20220;-78
2020/12/06 14:03:36;;;;;;;4.83;3.63;;;;;;;;;;5019427;28;20231;-78
2020/12/06 14:06:03;;;;;;;6.07;2.93;;;;;;;;;;5051006;28;20809;-78
2020/12/06 14:08:30;;;;;;;3.23;2.53;;;;;;;;;;5024482;28;20231;-78
2020/12/06 14:10:58;;;;;;;5.33;3.50;;;;;;;;;;4998687;28;20232;-78
2020/12/06 14:13:25;;;;;;;4.13;2.90;;;;;;;;;;4995671;28;20740;-78
2020/12/06 14:15:54;;;;;;;4.07;2.93;;;;;;;;;;4998717;28;20228;-78
2020/12/06 14:18:23;;;;;;;3.57;2.83;;;;;;;;;;5001423;28;20232;-78
2020/12/06 14:20:51;;;;;;;3.87;2.70;;;;;;;;;;4996802;28;20209;-78
2020/12/06 14:23:18;;;;;;;4.50;3.00;;;;;;;;;;5025757;28;20227;-78
2020/12/06 14:25:46;;;;;;;6.00;3.17;;;;;;;;;;5022143;28;20224;-78
2020/12/06 14:28:13;;;;;;;3.60;2.50;;;;;;;;;;5030220;28;20227;-79
2020/12/06 14:30:41;;;;;;;4.83;3.03;;;;;;;;;;5003884;28;20226;-78
2020/12/06 14:33:21;;;;;;;5.20;3.53;;;;;;;;;;4991474;28;20439;-77
2020/12/06 14:35:49;;;;;;;4.07;3.33;;;;;;;;;;5001257;28;20224;-79
2020/12/06 14:38:17;;;;;;;4.83;3.47;;;;;;;;;;5041636;28;20232;-78